Mount Union, Texas
Current Conditions -  °F | °C
As of 12:35 AM on Sunday 21 Dec 2014 (Local Time) from KJAS Reporting Station
Haze Haze  
Wind Chill: 40°   Ceiling: 700
Heat Index: 40°   Visibility: 1.2mi
Dew Point: 39°   Wind: 0mph
Humidity: 98%   Direction: NA
Pressure: 30.21"   Gusts: NA
Location:  30.7133°N, 93.9985°W
Report Text: KJAS 210635Z AUTO 00000KT 1 1/4SM BR VV007 04/04 A3021 RMK AO2 T00430040
Loading
Personal Weather Stations






























Interactive Weather Map New forecast layout! Learn more

10-Day Weather Forecast

Advertisements
Track Severe Weather on mobile